sensor_id;sensor_type;location;lat;lon;timestamp;P1;durP1;ratioP1;P2;durP2;ratioP2
9898;SDS011;4988;49.238;6.698;2023-10-08T00:02:14;16.33;;;8.17;;
9898;SDS011;4988;49.238;6.698;2023-10-08T00:04:47;13.23;;;8.00;;
9898;SDS011;4988;49.238;6.698;2023-10-08T00:07:13;17.20;;;8.60;;
9898;SDS011;4988;49.238;6.698;2023-10-08T00:09:38;16.37;;;7.93;;
9898;SDS011;4988;49.238;6.698;2023-10-08T00:12:04;15.87;;;7.83;;
9898;SDS011;4988;49.238;6.698;2023-10-08T00:14:29;14.93;;;7.83;;
9898;SDS011;4988;49.238;6.698;2023-10-08T00:16:56;13.77;;;7.87;;
9898;SDS011;4988;49.238;6.698;2023-10-08T00:19:22;14.10;;;8.20;;
9898;SDS011;4988;49.238;6.698;2023-10-08T00:21:49;13.47;;;7.40;;
9898;SDS011;4988;49.238;6.698;2023-10-08T00:24:18;13.07;;;7.33;;
9898;SDS011;4988;49.238;6.698;2023-10-08T00:26:43;13.53;;;7.47;;
9898;SDS011;4988;49.238;6.698;2023-10-08T00:29:08;17.07;;;7.67;;
9898;SDS011;4988;49.238;6.698;2023-10-08T00:31:52;17.40;;;8.00;;
9898;SDS011;4988;49.238;6.698;2023-10-08T00:34:21;12.73;;;7.77;;
9898;SDS011;4988;49.238;6.698;2023-10-08T00:36:48;13.63;;;7.93;;
9898;SDS011;4988;49.238;6.698;2023-10-08T00:39:14;13.73;;;7.13;;
9898;SDS011;4988;49.238;6.698;2023-10-08T00:41:47;10.83;;;6.57;;
9898;SDS011;4988;49.238;6.698;2023-10-08T00:44:14;14.73;;;7.47;;
9898;SDS011;4988;49.238;6.698;2023-10-08T00:46:48;10.63;;;7.10;;
9898;SDS011;4988;49.238;6.698;2023-10-08T00:49:19;11.33;;;7.33;;
9898;SDS011;4988;49.238;6.698;2023-10-08T00:51:47;13.33;;;6.87;;
9898;SDS011;4988;49.238;6.698;2023-10-08T00:54:13;12.70;;;6.83;;
9898;SDS011;4988;49.238;6.698;2023-10-08T00:56:45;12.47;;;6.80;;
9898;SDS011;4988;49.238;6.698;2023-10-08T00:59:14;13.00;;;6.87;;
9898;SDS011;4988;49.238;6.698;2023-10-08T01:01:43;13.07;;;7.23;;
9898;SDS011;4988;49.238;6.698;2023-10-08T01:04:17;10.80;;;7.20;;
9898;SDS011;4988;49.238;6.698;2023-10-08T01:06:44;11.03;;;7.17;;
9898;SDS011;4988;49.238;6.698;2023-10-08T01:09:10;14.20;;;7.47;;
9898;SDS011;4988;49.238;6.698;2023-10-08T01:11:46;14.17;;;7.30;;
9898;SDS011;4988;49.238;6.698;2023-10-08T01:14:41;11.83;;;6.60;;
9898;SDS011;4988;49.238;6.698;2023-10-08T01:17:10;10.83;;;7.00;;
9898;SDS011;4988;49.238;6.698;2023-10-08T01:19:41;16.53;;;6.57;;
9898;SDS011;4988;49.238;6.698;2023-10-08T01:22:11;11.60;;;6.03;;
9898;SDS011;4988;49.238;6.698;2023-10-08T01:24:46;11.87;;;6.80;;
9898;SDS011;4988;49.238;6.698;2023-10-08T01:27:16;12.47;;;6.60;;
9898;SDS011;4988;49.238;6.698;2023-10-08T01:29:52;11.23;;;6.20;;
9898;SDS011;4988;49.238;6.698;2023-10-08T01:32:18;11.67;;;6.10;;
9898;SDS011;4988;49.238;6.698;2023-10-08T01:34:45;12.77;;;6.00;;
9898;SDS011;4988;49.238;6.698;2023-10-08T01:37:17;14.03;;;6.20;;
9898;SDS011;4988;49.238;6.698;2023-10-08T01:39:44;12.97;;;6.43;;
9898;SDS011;4988;49.238;6.698;2023-10-08T01:42:15;11.07;;;6.07;;
9898;SDS011;4988;49.238;6.698;2023-10-08T01:44:49;12.37;;;6.20;;
9898;SDS011;4988;49.238;6.698;2023-10-08T01:47:15;10.97;;;6.50;;
9898;SDS011;4988;49.238;6.698;2023-10-08T01:49:44;11.13;;;6.50;;
9898;SDS011;4988;49.238;6.698;2023-10-08T01:52:11;10.37;;;6.33;;
9898;SDS011;4988;49.238;6.698;2023-10-08T01:54:47;10.27;;;6.13;;
9898;SDS011;4988;49.238;6.698;2023-10-08T01:57:13;11.93;;;6.57;;
9898;SDS011;4988;49.238;6.698;2023-10-08T01:59:39;15.90;;;7.33;;
9898;SDS011;4988;49.238;6.698;2023-10-08T02:02:05;11.13;;;6.40;;
9898;SDS011;4988;49.238;6.698;2023-10-08T02:04:32;12.67;;;6.70;;
9898;SDS011;4988;49.238;6.698;2023-10-08T02:07:00;12.90;;;6.73;;
9898;SDS011;4988;49.238;6.698;2023-10-08T02:09:26;9.90;;;6.30;;
9898;SDS011;4988;49.238;6.698;2023-10-08T02:11:51;11.90;;;6.57;;
9898;SDS011;4988;49.238;6.698;2023-10-08T02:14:18;10.80;;;6.80;;
9898;SDS011;4988;49.238;6.698;2023-10-08T02:16:45;10.57;;;6.50;;
9898;SDS011;4988;49.238;6.698;2023-10-08T02:19:12;11.70;;;6.07;;
9898;SDS011;4988;49.238;6.698;2023-10-08T02:21:38;9.90;;;6.00;;
9898;SDS011;4988;49.238;6.698;2023-10-08T02:24:11;11.37;;;6.57;;
9898;SDS011;4988;49.238;6.698;2023-10-08T02:26:37;11.77;;;6.67;;
9898;SDS011;4988;49.238;6.698;2023-10-08T02:29:03;10.03;;;6.30;;
9898;SDS011;4988;49.238;6.698;2023-10-08T02:31:36;11.17;;;6.00;;
9898;SDS011;4988;49.238;6.698;2023-10-08T02:34:08;11.13;;;6.37;;
9898;SDS011;4988;49.238;6.698;2023-10-08T02:36:34;9.17;;;6.17;;
9898;SDS011;4988;49.238;6.698;2023-10-08T02:39:05;12.53;;;6.33;;
9898;SDS011;4988;49.238;6.698;2023-10-08T02:41:32;12.20;;;7.87;;
9898;SDS011;4988;49.238;6.698;2023-10-08T02:43:57;10.27;;;6.00;;
9898;SDS011;4988;49.238;6.698;2023-10-08T02:46:24;12.03;;;6.90;;
9898;SDS011;4988;49.238;6.698;2023-10-08T02:48:51;10.03;;;6.33;;
9898;SDS011;4988;49.238;6.698;2023-10-08T02:51:17;9.80;;;6.27;;
9898;SDS011;4988;49.238;6.698;2023-10-08T02:53:45;8.90;;;5.90;;
9898;SDS011;4988;49.238;6.698;2023-10-08T02:56:11;13.27;;;6.30;;
9898;SDS011;4988;49.238;6.698;2023-10-08T02:58:41;9.53;;;5.80;;
9898;SDS011;4988;49.238;6.698;2023-10-08T03:01:12;10.63;;;6.17;;
9898;SDS011;4988;49.238;6.698;2023-10-08T03:03:41;11.80;;;6.70;;
9898;SDS011;4988;49.238;6.698;2023-10-08T03:06:11;13.73;;;6.57;;
9898;SDS011;4988;49.238;6.698;2023-10-08T03:08:39;11.87;;;6.00;;
9898;SDS011;4988;49.238;6.698;2023-10-08T03:11:08;9.33;;;6.13;;
9898;SDS011;4988;49.238;6.698;2023-10-08T03:13:41;9.53;;;6.03;;
9898;SDS011;4988;49.238;6.698;2023-10-08T03:16:11;12.93;;;6.10;;
9898;SDS011;4988;49.238;6.698;2023-10-08T03:18:40;10.27;;;6.40;;
9898;SDS011;4988;49.238;6.698;2023-10-08T03:21:10;12.50;;;6.03;;
9898;SDS011;4988;49.238;6.698;2023-10-08T03:23:48;12.00;;;6.20;;
9898;SDS011;4988;49.238;6.698;2023-10-08T03:26:15;9.43;;;6.20;;
9898;SDS011;4988;49.238;6.698;2023-10-08T03:28:56;10.73;;;6.23;;
9898;SDS011;4988;49.238;6.698;2023-10-08T03:31:24;13.63;;;7.00;;
9898;SDS011;4988;49.238;6.698;2023-10-08T03:34:19;9.97;;;6.30;;
9898;SDS011;4988;49.238;6.698;2023-10-08T03:36:45;11.27;;;6.97;;
9898;SDS011;4988;49.238;6.698;2023-10-08T03:39:12;11.57;;;6.77;;
9898;SDS011;4988;49.238;6.698;2023-10-08T03:41:39;10.83;;;6.60;;
9898;SDS011;4988;49.238;6.698;2023-10-08T03:44:05;10.70;;;6.60;;
9898;SDS011;4988;49.238;6.698;2023-10-08T03:46:37;9.37;;;5.90;;
9898;SDS011;4988;49.238;6.698;2023-10-08T03:49:10;11.63;;;6.80;;
9898;SDS011;4988;49.238;6.698;2023-10-08T03:51:48;9.80;;;6.20;;
9898;SDS011;4988;49.238;6.698;2023-10-08T03:54:20;11.13;;;5.97;;
9898;SDS011;4988;49.238;6.698;2023-10-08T03:56:58;12.23;;;6.10;;
9898;SDS011;4988;49.238;6.698;2023-10-08T03:59:25;7.60;;;5.57;;
9898;SDS011;4988;49.238;6.698;2023-10-08T04:01:57;10.93;;;6.40;;
9898;SDS011;4988;49.238;6.698;2023-10-08T04:04:26;14.03;;;6.57;;
9898;SDS011;4988;49.238;6.698;2023-10-08T04:07:11;13.57;;;6.93;;
9898;SDS011;4988;49.238;6.698;2023-10-08T04:09:58;14.50;;;6.70;;
9898;SDS011;4988;49.238;6.698;2023-10-08T04:12:50;10.87;;;6.97;;
9898;SDS011;4988;49.238;6.698;2023-10-08T04:15:18;12.83;;;6.83;;
9898;SDS011;4988;49.238;6.698;2023-10-08T04:17:44;9.83;;;6.20;;
9898;SDS011;4988;49.238;6.698;2023-10-08T04:20:14;12.53;;;6.33;;
9898;SDS011;4988;49.238;6.698;2023-10-08T04:22:58;14.57;;;6.00;;
9898;SDS011;4988;49.238;6.698;2023-10-08T04:25:25;13.33;;;5.70;;
9898;SDS011;4988;49.238;6.698;2023-10-08T04:27:53;13.47;;;6.50;;
9898;SDS011;4988;49.238;6.698;2023-10-08T04:30:24;9.90;;;5.93;;
9898;SDS011;4988;49.238;6.698;2023-10-08T04:33:02;11.27;;;6.70;;
9898;SDS011;4988;49.238;6.698;2023-10-08T04:35:33;10.83;;;6.37;;
9898;SDS011;4988;49.238;6.698;2023-10-08T04:38:03;9.40;;;5.53;;
9898;SDS011;4988;49.238;6.698;2023-10-08T04:40:29;10.40;;;6.03;;
9898;SDS011;4988;49.238;6.698;2023-10-08T04:42:58;11.63;;;6.00;;
9898;SDS011;4988;49.238;6.698;2023-10-08T04:45:27;13.03;;;6.27;;
9898;SDS011;4988;49.238;6.698;2023-10-08T04:47:59;8.93;;;5.97;;
9898;SDS011;4988;49.238;6.698;2023-10-08T04:50:24;10.87;;;6.40;;
9898;SDS011;4988;49.238;6.698;2023-10-08T04:52:55;11.73;;;6.57;;
9898;SDS011;4988;49.238;6.698;2023-10-08T04:55:24;11.67;;;6.50;;
9898;SDS011;4988;49.238;6.698;2023-10-08T04:57:54;11.17;;;6.10;;
9898;SDS011;4988;49.238;6.698;2023-10-08T05:00:20;10.87;;;6.47;;
9898;SDS011;4988;49.238;6.698;2023-10-08T05:03:06;8.03;;;5.67;;
9898;SDS011;4988;49.238;6.698;2023-10-08T05:05:39;9.73;;;5.83;;
9898;SDS011;4988;49.238;6.698;2023-10-08T05:08:36;11.53;;;6.33;;
9898;SDS011;4988;49.238;6.698;2023-10-08T05:11:23;11.17;;;6.97;;
9898;SDS011;4988;49.238;6.698;2023-10-08T05:14:10;9.57;;;6.63;;
9898;SDS011;4988;49.238;6.698;2023-10-08T05:16:42;10.67;;;6.43;;
9898;SDS011;4988;49.238;6.698;2023-10-08T05:19:25;11.30;;;6.83;;
9898;SDS011;4988;49.238;6.698;2023-10-08T05:22:14;10.87;;;6.67;;
9898;SDS011;4988;49.238;6.698;2023-10-08T05:24:53;10.37;;;6.60;;
9898;SDS011;4988;49.238;6.698;2023-10-08T05:27:42;10.03;;;6.57;;
9898;SDS011;4988;49.238;6.698;2023-10-08T05:30:18;9.63;;;6.67;;
9898;SDS011;4988;49.238;6.698;2023-10-08T05:32:57;10.10;;;6.33;;
9898;SDS011;4988;49.238;6.698;2023-10-08T05:35:29;9.93;;;6.23;;
9898;SDS011;4988;49.238;6.698;2023-10-08T05:38:13;11.73;;;6.20;;
9898;SDS011;4988;49.238;6.698;2023-10-08T05:41:03;10.83;;;6.30;;
9898;SDS011;4988;49.238;6.698;2023-10-08T05:48:50;9.17;;;6.43;;
9898;SDS011;4988;49.238;6.698;2023-10-08T05:51:41;11.83;;;7.37;;
9898;SDS011;4988;49.238;6.698;2023-10-08T05:54:14;11.73;;;7.07;;
9898;SDS011;4988;49.238;6.698;2023-10-08T05:59:37;11.97;;;7.00;;
9898;SDS011;4988;49.238;6.698;2023-10-08T06:02:07;13.53;;;7.27;;
9898;SDS011;4988;49.238;6.698;2023-10-08T06:04:53;17.47;;;7.50;;
9898;SDS011;4988;49.238;6.698;2023-10-08T06:07:35;12.27;;;6.87;;
9898;SDS011;4988;49.238;6.698;2023-10-08T06:10:13;11.20;;;7.00;;
9898;SDS011;4988;49.238;6.698;2023-10-08T06:15:46;10.97;;;6.33;;
9898;SDS011;4988;49.238;6.698;2023-10-08T06:18:22;14.17;;;7.70;;
9898;SDS011;4988;49.238;6.698;2023-10-08T06:20:52;18.10;;;9.30;;
9898;SDS011;4988;49.238;6.698;2023-10-08T06:23:24;18.53;;;9.43;;
9898;SDS011;4988;49.238;6.698;2023-10-08T06:25:50;14.97;;;7.57;;
9898;SDS011;4988;49.238;6.698;2023-10-08T06:28:30;13.50;;;7.33;;
9898;SDS011;4988;49.238;6.698;2023-10-08T06:30:59;12.67;;;6.90;;
9898;SDS011;4988;49.238;6.698;2023-10-08T06:33:26;10.93;;;6.70;;
9898;SDS011;4988;49.238;6.698;2023-10-08T06:35:55;12.57;;;6.17;;
9898;SDS011;4988;49.238;6.698;2023-10-08T06:38:33;12.43;;;5.73;;
9898;SDS011;4988;49.238;6.698;2023-10-08T06:40:59;9.67;;;6.10;;
9898;SDS011;4988;49.238;6.698;2023-10-08T06:43:26;10.43;;;5.90;;
9898;SDS011;4988;49.238;6.698;2023-10-08T06:45:52;11.20;;;6.27;;
9898;SDS011;4988;49.238;6.698;2023-10-08T06:48:18;13.97;;;6.47;;
9898;SDS011;4988;49.238;6.698;2023-10-08T06:50:48;10.13;;;6.33;;
9898;SDS011;4988;49.238;6.698;2023-10-08T06:53:14;9.63;;;5.83;;
9898;SDS011;4988;49.238;6.698;2023-10-08T06:55:43;11.47;;;6.27;;
9898;SDS011;4988;49.238;6.698;2023-10-08T06:58:09;10.37;;;5.90;;
9898;SDS011;4988;49.238;6.698;2023-10-08T07:00:36;10.57;;;6.30;;
9898;SDS011;4988;49.238;6.698;2023-10-08T07:03:05;10.37;;;5.63;;
9898;SDS011;4988;49.238;6.698;2023-10-08T07:05:34;11.83;;;5.80;;
9898;SDS011;4988;49.238;6.698;2023-10-08T07:08:05;12.00;;;6.27;;
9898;SDS011;4988;49.238;6.698;2023-10-08T07:10:34;14.77;;;7.03;;
9898;SDS011;4988;49.238;6.698;2023-10-08T07:13:00;10.33;;;6.10;;
9898;SDS011;4988;49.238;6.698;2023-10-08T07:15:28;10.13;;;6.30;;
9898;SDS011;4988;49.238;6.698;2023-10-08T07:17:55;13.63;;;6.30;;
9898;SDS011;4988;49.238;6.698;2023-10-08T07:20:20;15.57;;;6.30;;
9898;SDS011;4988;49.238;6.698;2023-10-08T07:22:49;10.20;;;6.33;;
9898;SDS011;4988;49.238;6.698;2023-10-08T07:25:23;13.23;;;6.43;;
9898;SDS011;4988;49.238;6.698;2023-10-08T07:27:48;11.90;;;6.70;;
9898;SDS011;4988;49.238;6.698;2023-10-08T07:30:14;15.23;;;7.30;;
9898;SDS011;4988;49.238;6.698;2023-10-08T07:32:52;12.73;;;6.67;;
9898;SDS011;4988;49.238;6.698;2023-10-08T07:35:23;13.43;;;6.60;;
9898;SDS011;4988;49.238;6.698;2023-10-08T07:37:51;12.57;;;6.93;;
9898;SDS011;4988;49.238;6.698;2023-10-08T07:40:19;13.73;;;6.33;;
9898;SDS011;4988;49.238;6.698;2023-10-08T07:42:46;11.53;;;7.27;;
9898;SDS011;4988;49.238;6.698;2023-10-08T07:45:16;13.60;;;7.27;;
9898;SDS011;4988;49.238;6.698;2023-10-08T07:47:42;9.97;;;6.13;;
9898;SDS011;4988;49.238;6.698;2023-10-08T07:50:08;13.43;;;6.30;;
9898;SDS011;4988;49.238;6.698;2023-10-08T07:52:37;11.97;;;6.33;;
9898;SDS011;4988;49.238;6.698;2023-10-08T07:55:03;9.77;;;5.87;;
9898;SDS011;4988;49.238;6.698;2023-10-08T07:57:29;11.73;;;6.27;;
9898;SDS011;4988;49.238;6.698;2023-10-08T07:59:56;12.27;;;7.00;;
9898;SDS011;4988;49.238;6.698;2023-10-08T08:02:41;12.10;;;6.73;;
9898;SDS011;4988;49.238;6.698;2023-10-08T08:05:07;11.53;;;6.13;;
9898;SDS011;4988;49.238;6.698;2023-10-08T08:07:32;11.83;;;6.60;;
9898;SDS011;4988;49.238;6.698;2023-10-08T08:09:58;12.53;;;6.43;;
9898;SDS011;4988;49.238;6.698;2023-10-08T08:12:23;10.37;;;6.07;;
9898;SDS011;4988;49.238;6.698;2023-10-08T08:14:53;9.67;;;6.30;;
9898;SDS011;4988;49.238;6.698;2023-10-08T08:17:19;14.47;;;6.60;;
9898;SDS011;4988;49.238;6.698;2023-10-08T08:19:48;15.57;;;6.10;;
9898;SDS011;4988;49.238;6.698;2023-10-08T08:22:15;13.87;;;7.37;;
9898;SDS011;4988;49.238;6.698;2023-10-08T08:24:47;11.60;;;6.30;;
9898;SDS011;4988;49.238;6.698;2023-10-08T08:27:28;10.70;;;5.90;;
9898;SDS011;4988;49.238;6.698;2023-10-08T08:29:56;13.20;;;6.47;;
9898;SDS011;4988;49.238;6.698;2023-10-08T08:32:34;12.03;;;6.30;;
9898;SDS011;4988;49.238;6.698;2023-10-08T08:35:00;11.27;;;6.20;;
9898;SDS011;4988;49.238;6.698;2023-10-08T08:37:25;8.07;;;5.70;;
9898;SDS011;4988;49.238;6.698;2023-10-08T08:39:57;12.13;;;6.73;;
9898;SDS011;4988;49.238;6.698;2023-10-08T08:42:22;12.57;;;6.00;;
9898;SDS011;4988;49.238;6.698;2023-10-08T08:44:48;11.30;;;5.90;;
9898;SDS011;4988;49.238;6.698;2023-10-08T08:47:17;10.73;;;5.90;;
9898;SDS011;4988;49.238;6.698;2023-10-08T08:49:43;12.70;;;6.10;;
9898;SDS011;4988;49.238;6.698;2023-10-08T08:52:12;16.97;;;6.40;;
9898;SDS011;4988;49.238;6.698;2023-10-08T08:54:39;13.00;;;6.70;;
9898;SDS011;4988;49.238;6.698;2023-10-08T08:57:07;13.13;;;6.40;;
9898;SDS011;4988;49.238;6.698;2023-10-08T08:59:38;15.27;;;6.97;;
9898;SDS011;4988;49.238;6.698;2023-10-08T09:02:09;10.90;;;6.23;;
9898;SDS011;4988;49.238;6.698;2023-10-08T09:04:39;11.53;;;6.90;;
9898;SDS011;4988;49.238;6.698;2023-10-08T09:07:04;12.00;;;6.63;;
9898;SDS011;4988;49.238;6.698;2023-10-08T09:09:35;11.60;;;6.10;;
9898;SDS011;4988;49.238;6.698;2023-10-08T09:12:04;13.83;;;6.90;;
9898;SDS011;4988;49.238;6.698;2023-10-08T09:14:30;13.90;;;6.03;;
9898;SDS011;4988;49.238;6.698;2023-10-08T09:16:59;15.13;;;6.90;;
9898;SDS011;4988;49.238;6.698;2023-10-08T09:19:26;13.00;;;6.10;;
9898;SDS011;4988;49.238;6.698;2023-10-08T09:22:08;11.53;;;5.80;;
9898;SDS011;4988;49.238;6.698;2023-10-08T09:24:36;13.87;;;5.20;;
9898;SDS011;4988;49.238;6.698;2023-10-08T09:27:05;15.53;;;5.63;;
9898;SDS011;4988;49.238;6.698;2023-10-08T09:29:32;13.67;;;5.90;;
9898;SDS011;4988;49.238;6.698;2023-10-08T09:32:04;12.50;;;5.80;;
9898;SDS011;4988;49.238;6.698;2023-10-08T09:34:30;11.63;;;6.10;;
9898;SDS011;4988;49.238;6.698;2023-10-08T09:36:57;14.23;;;6.10;;
9898;SDS011;4988;49.238;6.698;2023-10-08T09:39:32;11.57;;;6.00;;
9898;SDS011;4988;49.238;6.698;2023-10-08T09:42:01;12.20;;;5.57;;
9898;SDS011;4988;49.238;6.698;2023-10-08T09:44:28;11.40;;;5.13;;
9898;SDS011;4988;49.238;6.698;2023-10-08T09:46:54;13.13;;;5.10;;
9898;SDS011;4988;49.238;6.698;2023-10-08T09:49:36;11.00;;;5.53;;
9898;SDS011;4988;49.238;6.698;2023-10-08T09:52:06;13.00;;;5.23;;
9898;SDS011;4988;49.238;6.698;2023-10-08T09:54:37;10.33;;;5.13;;
9898;SDS011;4988;49.238;6.698;2023-10-08T09:57:09;10.83;;;5.53;;
9898;SDS011;4988;49.238;6.698;2023-10-08T09:59:35;16.30;;;5.17;;
9898;SDS011;4988;49.238;6.698;2023-10-08T10:02:03;9.67;;;4.33;;
9898;SDS011;4988;49.238;6.698;2023-10-08T10:04:30;15.27;;;4.90;;
9898;SDS011;4988;49.238;6.698;2023-10-08T10:06:57;13.10;;;6.10;;
9898;SDS011;4988;49.238;6.698;2023-10-08T10:09:26;11.17;;;5.40;;
9898;SDS011;4988;49.238;6.698;2023-10-08T10:11:52;12.23;;;4.90;;
9898;SDS011;4988;49.238;6.698;2023-10-08T10:14:22;11.37;;;5.20;;
9898;SDS011;4988;49.238;6.698;2023-10-08T10:17:07;12.87;;;4.63;;
9898;SDS011;4988;49.238;6.698;2023-10-08T10:19:57;9.17;;;4.67;;
9898;SDS011;4988;49.238;6.698;2023-10-08T10:22:28;12.40;;;4.90;;
9898;SDS011;4988;49.238;6.698;2023-10-08T10:24:58;11.53;;;5.47;;
9898;SDS011;4988;49.238;6.698;2023-10-08T10:27:28;15.70;;;5.90;;
9898;SDS011;4988;49.238;6.698;2023-10-08T10:30:00;11.53;;;4.70;;
9898;SDS011;4988;49.238;6.698;2023-10-08T10:32:33;11.43;;;5.27;;
9898;SDS011;4988;49.238;6.698;2023-10-08T10:35:02;12.37;;;5.20;;
9898;SDS011;4988;49.238;6.698;2023-10-08T10:37:29;8.77;;;4.87;;
9898;SDS011;4988;49.238;6.698;2023-10-08T10:40:06;11.17;;;4.80;;
9898;SDS011;4988;49.238;6.698;2023-10-08T10:42:35;9.63;;;4.67;;
9898;SDS011;4988;49.238;6.698;2023-10-08T10:45:11;9.60;;;4.57;;
9898;SDS011;4988;49.238;6.698;2023-10-08T10:47:58;11.90;;;4.93;;
9898;SDS011;4988;49.238;6.698;2023-10-08T10:50:36;7.97;;;4.23;;
9898;SDS011;4988;49.238;6.698;2023-10-08T10:53:12;11.33;;;5.10;;
9898;SDS011;4988;49.238;6.698;2023-10-08T10:55:38;9.33;;;5.37;;
9898;SDS011;4988;49.238;6.698;2023-10-08T10:58:13;11.27;;;4.87;;
9898;SDS011;4988;49.238;6.698;2023-10-08T11:00:44;11.23;;;5.23;;
9898;SDS011;4988;49.238;6.698;2023-10-08T11:03:09;12.87;;;5.13;;
9898;SDS011;4988;49.238;6.698;2023-10-08T11:05:41;12.47;;;4.87;;
9898;SDS011;4988;49.238;6.698;2023-10-08T11:08:13;10.97;;;4.20;;
9898;SDS011;4988;49.238;6.698;2023-10-08T11:10:41;12.20;;;4.97;;
9898;SDS011;4988;49.238;6.698;2023-10-08T11:13:13;10.30;;;4.23;;
9898;SDS011;4988;49.238;6.698;2023-10-08T11:15:42;8.33;;;4.10;;
9898;SDS011;4988;49.238;6.698;2023-10-08T11:18:11;9.77;;;4.53;;
9898;SDS011;4988;49.238;6.698;2023-10-08T11:20:40;12.67;;;4.40;;
9898;SDS011;4988;49.238;6.698;2023-10-08T11:23:09;10.67;;;4.50;;
9898;SDS011;4988;49.238;6.698;2023-10-08T11:25:57;10.07;;;4.10;;
9898;SDS011;4988;49.238;6.698;2023-10-08T11:28:37;10.93;;;4.37;;
9898;SDS011;4988;49.238;6.698;2023-10-08T11:31:12;12.63;;;4.40;;
9898;SDS011;4988;49.238;6.698;2023-10-08T11:33:43;10.07;;;4.27;;
9898;SDS011;4988;49.238;6.698;2023-10-08T11:36:22;9.77;;;4.17;;
9898;SDS011;4988;49.238;6.698;2023-10-08T11:39:11;12.10;;;4.73;;
9898;SDS011;4988;49.238;6.698;2023-10-08T11:41:54;9.63;;;3.93;;
9898;SDS011;4988;49.238;6.698;2023-10-08T11:44:20;11.10;;;4.90;;
9898;SDS011;4988;49.238;6.698;2023-10-08T11:46:48;8.17;;;4.03;;
9898;SDS011;4988;49.238;6.698;2023-10-08T11:49:16;8.77;;;4.33;;
9898;SDS011;4988;49.238;6.698;2023-10-08T11:51:43;13.87;;;4.23;;
9898;SDS011;4988;49.238;6.698;2023-10-08T11:54:13;11.97;;;4.30;;
9898;SDS011;4988;49.238;6.698;2023-10-08T11:56:39;10.90;;;4.30;;
9898;SDS011;4988;49.238;6.698;2023-10-08T11:59:05;12.40;;;4.90;;
9898;SDS011;4988;49.238;6.698;2023-10-08T12:01:34;12.03;;;4.50;;
9898;SDS011;4988;49.238;6.698;2023-10-08T12:04:04;8.30;;;4.20;;
9898;SDS011;4988;49.238;6.698;2023-10-08T12:06:30;10.67;;;4.27;;
9898;SDS011;4988;49.238;6.698;2023-10-08T12:08:57;11.00;;;4.60;;
9898;SDS011;4988;49.238;6.698;2023-10-08T12:11:36;10.43;;;4.30;;
9898;SDS011;4988;49.238;6.698;2023-10-08T12:14:02;10.70;;;4.70;;
9898;SDS011;4988;49.238;6.698;2023-10-08T12:16:28;12.20;;;4.33;;
9898;SDS011;4988;49.238;6.698;2023-10-08T12:19:00;9.70;;;4.30;;
9898;SDS011;4988;49.238;6.698;2023-10-08T12:21:30;8.30;;;4.07;;
9898;SDS011;4988;49.238;6.698;2023-10-08T12:23:59;9.70;;;4.07;;
9898;SDS011;4988;49.238;6.698;2023-10-08T12:26:29;12.93;;;4.27;;
9898;SDS011;4988;49.238;6.698;2023-10-08T12:28:56;10.30;;;4.60;;
9898;SDS011;4988;49.238;6.698;2023-10-08T12:31:22;11.50;;;4.20;;
9898;SDS011;4988;49.238;6.698;2023-10-08T12:33:49;9.97;;;4.30;;
9898;SDS011;4988;49.238;6.698;2023-10-08T12:36:18;14.67;;;4.53;;
9898;SDS011;4988;49.238;6.698;2023-10-08T12:38:51;11.07;;;4.40;;
9898;SDS011;4988;49.238;6.698;2023-10-08T12:41:22;9.67;;;4.00;;
9898;SDS011;4988;49.238;6.698;2023-10-08T12:43:50;14.80;;;4.53;;
9898;SDS011;4988;49.238;6.698;2023-10-08T12:46:18;13.40;;;4.50;;
9898;SDS011;4988;49.238;6.698;2023-10-08T12:48:49;11.90;;;4.30;;
9898;SDS011;4988;49.238;6.698;2023-10-08T12:51:21;11.30;;;4.70;;
9898;SDS011;4988;49.238;6.698;2023-10-08T12:53:53;12.90;;;5.00;;
9898;SDS011;4988;49.238;6.698;2023-10-08T12:56:29;13.80;;;4.20;;
9898;SDS011;4988;49.238;6.698;2023-10-08T12:59:03;8.00;;;3.90;;
9898;SDS011;4988;49.238;6.698;2023-10-08T13:01:31;13.97;;;4.50;;
9898;SDS011;4988;49.238;6.698;2023-10-08T13:03:57;14.20;;;4.80;;
9898;SDS011;4988;49.238;6.698;2023-10-08T13:06:26;16.40;;;4.57;;
9898;SDS011;4988;49.238;6.698;2023-10-08T13:08:55;12.27;;;4.53;;
9898;SDS011;4988;49.238;6.698;2023-10-08T13:11:22;13.07;;;4.40;;
9898;SDS011;4988;49.238;6.698;2023-10-08T13:13:49;13.47;;;4.53;;
9898;SDS011;4988;49.238;6.698;2023-10-08T13:16:21;17.90;;;4.80;;
9898;SDS011;4988;49.238;6.698;2023-10-08T13:18:47;15.20;;;4.93;;
9898;SDS011;4988;49.238;6.698;2023-10-08T13:21:13;10.97;;;4.47;;
9898;SDS011;4988;49.238;6.698;2023-10-08T13:23:39;19.47;;;4.90;;
9898;SDS011;4988;49.238;6.698;2023-10-08T13:26:05;17.77;;;4.87;;
9898;SDS011;4988;49.238;6.698;2023-10-08T13:28:32;13.77;;;4.63;;
9898;SDS011;4988;49.238;6.698;2023-10-08T13:30:59;14.77;;;4.70;;
9898;SDS011;4988;49.238;6.698;2023-10-08T13:33:25;13.03;;;4.60;;
9898;SDS011;4988;49.238;6.698;2023-10-08T13:35:50;12.67;;;4.30;;
9898;SDS011;4988;49.238;6.698;2023-10-08T13:38:19;13.47;;;4.57;;
9898;SDS011;4988;49.238;6.698;2023-10-08T13:40:47;12.77;;;4.27;;
9898;SDS011;4988;49.238;6.698;2023-10-08T13:43:29;13.40;;;4.23;;
9898;SDS011;4988;49.238;6.698;2023-10-08T13:46:03;15.63;;;4.70;;
9898;SDS011;4988;49.238;6.698;2023-10-08T13:48:33;19.67;;;5.43;;
9898;SDS011;4988;49.238;6.698;2023-10-08T13:51:00;15.37;;;4.47;;
9898;SDS011;4988;49.238;6.698;2023-10-08T13:53:30;11.10;;;4.67;;
9898;SDS011;4988;49.238;6.698;2023-10-08T13:55:57;13.90;;;4.23;;
9898;SDS011;4988;49.238;6.698;2023-10-08T13:58:28;16.07;;;4.60;;
9898;SDS011;4988;49.238;6.698;2023-10-08T14:00:55;10.97;;;4.70;;
9898;SDS011;4988;49.238;6.698;2023-10-08T14:03:21;13.47;;;4.73;;
9898;SDS011;4988;49.238;6.698;2023-10-08T14:05:47;12.83;;;4.20;;
9898;SDS011;4988;49.238;6.698;2023-10-08T14:08:17;10.93;;;4.40;;
9898;SDS011;4988;49.238;6.698;2023-10-08T14:10:44;17.50;;;4.47;;
9898;SDS011;4988;49.238;6.698;2023-10-08T14:13:10;15.27;;;4.60;;
9898;SDS011;4988;49.238;6.698;2023-10-08T14:15:35;11.53;;;4.47;;
9898;SDS011;4988;49.238;6.698;2023-10-08T14:18:07;15.63;;;4.60;;
9898;SDS011;4988;49.238;6.698;2023-10-08T14:20:33;13.23;;;4.90;;
9898;SDS011;4988;49.238;6.698;2023-10-08T14:22:59;12.57;;;4.53;;
9898;SDS011;4988;49.238;6.698;2023-10-08T14:25:38;16.10;;;4.60;;
9898;SDS011;4988;49.238;6.698;2023-10-08T14:28:09;20.53;;;4.43;;
9898;SDS011;4988;49.238;6.698;2023-10-08T14:30:46;15.73;;;4.80;;
9898;SDS011;4988;49.238;6.698;2023-10-08T14:33:15;19.93;;;4.70;;
9898;SDS011;4988;49.238;6.698;2023-10-08T14:35:49;12.27;;;4.10;;
9898;SDS011;4988;49.238;6.698;2023-10-08T14:38:33;13.50;;;4.47;;
9898;SDS011;4988;49.238;6.698;2023-10-08T14:41:16;14.40;;;5.27;;
9898;SDS011;4988;49.238;6.698;2023-10-08T14:44:00;11.93;;;4.17;;
9898;SDS011;4988;49.238;6.698;2023-10-08T14:46:29;12.87;;;4.77;;
9898;SDS011;4988;49.238;6.698;2023-10-08T14:48:58;15.70;;;4.40;;
9898;SDS011;4988;49.238;6.698;2023-10-08T14:51:23;17.83;;;4.40;;
9898;SDS011;4988;49.238;6.698;2023-10-08T14:53:49;17.67;;;4.87;;
9898;SDS011;4988;49.238;6.698;2023-10-08T14:56:14;14.37;;;4.20;;
9898;SDS011;4988;49.238;6.698;2023-10-08T14:58:41;17.17;;;4.43;;
9898;SDS011;4988;49.238;6.698;2023-10-08T15:01:06;16.70;;;4.70;;
9898;SDS011;4988;49.238;6.698;2023-10-08T15:03:32;15.20;;;5.10;;
9898;SDS011;4988;49.238;6.698;2023-10-08T15:05:57;18.20;;;4.70;;
9898;SDS011;4988;49.238;6.698;2023-10-08T15:08:23;13.67;;;4.40;;
9898;SDS011;4988;49.238;6.698;2023-10-08T15:10:48;15.67;;;4.83;;
9898;SDS011;4988;49.238;6.698;2023-10-08T15:13:14;14.33;;;4.40;;
9898;SDS011;4988;49.238;6.698;2023-10-08T15:15:40;18.30;;;4.60;;
9898;SDS011;4988;49.238;6.698;2023-10-08T15:18:08;11.20;;;4.40;;
9898;SDS011;4988;49.238;6.698;2023-10-08T15:20:36;14.80;;;4.50;;
9898;SDS011;4988;49.238;6.698;2023-10-08T15:23:02;13.40;;;4.50;;
9898;SDS011;4988;49.238;6.698;2023-10-08T15:25:28;16.87;;;4.43;;
9898;SDS011;4988;49.238;6.698;2023-10-08T15:27:54;14.13;;;4.23;;
9898;SDS011;4988;49.238;6.698;2023-10-08T15:30:19;11.70;;;4.47;;
9898;SDS011;4988;49.238;6.698;2023-10-08T15:32:45;18.07;;;5.07;;
9898;SDS011;4988;49.238;6.698;2023-10-08T15:35:15;12.93;;;4.60;;